Time;durP1;ratioP1;P1;durP2;ratioP2;P2;SDS_P1;SDS_P2;PMS_P1;PMS_P2;Temp;Humidity;BMP_temperature;BMP_pressure;BME280_temperature;BME280_humidity;BME280_pressure;Samples;Min_cycle;Max_cycle;Signal;HPM_P1;HPM_P2
2023/12/16 00:00:42;;;;;;;23.23;7.18;;;8.70;99.90;;;;;;5046766;28;20564;-72
2023/12/16 00:03:10;;;;;;;24.58;6.85;;;8.70;99.90;;;;;;5048266;28;20021;-72
2023/12/16 00:05:36;;;;;;;23.10;6.28;;;8.70;99.90;;;;;;5047780;28;20546;-73
2023/12/16 00:08:01;;;;;;;15.63;5.28;;;8.70;99.90;;;;;;5048589;28;20116;-73
2023/12/16 00:10:27;;;;;;;16.52;4.60;;;8.70;99.90;;;;;;5046631;28;20021;-73
2023/12/16 00:12:52;;;;;;;22.60;4.72;;;8.60;99.90;;;;;;5047016;28;20490;-73
2023/12/16 00:15:18;;;;;;;20.10;5.05;;;8.60;99.90;;;;;;5047895;28;20032;-73
2023/12/16 00:17:44;;;;;;;16.60;5.03;;;8.60;99.90;;;;;;5047994;28;20044;-73
2023/12/16 00:20:10;;;;;;;19.63;4.43;;;8.60;99.90;;;;;;5047703;28;20029;-74
2023/12/16 00:22:39;;;;;;;16.30;4.80;;;8.60;99.90;;;;;;5048003;28;20017;-73
2023/12/16 00:25:08;;;;;;;17.23;4.15;;;8.60;99.90;;;;;;5047638;28;20754;-73
2023/12/16 00:27:35;;;;;;;14.40;3.95;;;8.70;99.90;;;;;;5047940;28;20036;-73
2023/12/16 00:30:02;;;;;;;17.60;4.50;;;8.70;99.90;;;;;;5047514;28;20658;-73
2023/12/16 00:32:28;;;;;;;13.57;3.97;;;8.60;99.90;;;;;;5047883;28;20110;-73
2023/12/16 00:34:53;;;;;;;17.48;4.30;;;8.70;99.90;;;;;;5047604;28;20056;-73
2023/12/16 00:37:19;;;;;;;17.00;4.25;;;8.60;99.90;;;;;;5046188;28;20044;-73
2023/12/16 00:39:45;;;;;;;14.40;3.88;;;8.70;99.90;;;;;;5047215;28;20060;-73
2023/12/16 00:42:10;;;;;;;19.98;3.95;;;8.60;99.90;;;;;;5047537;28;20498;-73
2023/12/16 00:44:36;;;;;;;16.77;3.65;;;8.60;99.90;;;;;;5047268;28;20025;-73
2023/12/16 00:47:02;;;;;;;17.23;3.35;;;8.60;99.90;;;;;;5047291;28;20025;-73
2023/12/16 00:49:28;;;;;;;18.65;3.47;;;8.60;99.90;;;;;;5047099;28;20071;-73
2023/12/16 00:51:56;;;;;;;19.77;3.80;;;8.60;99.90;;;;;;5047219;28;20505;-73
2023/12/16 00:54:22;;;;;;;18.08;3.35;;;8.60;99.90;;;;;;5047574;28;20036;-73
2023/12/16 00:56:48;;;;;;;13.38;3.60;;;8.60;99.90;;;;;;5047587;28;20025;-73
2023/12/16 00:59:14;;;;;;;19.15;4.18;;;8.60;99.90;;;;;;5047140;28;20814;-73
2023/12/16 01:01:39;;;;;;;17.52;3.30;;;8.60;99.90;;;;;;5047212;28;20061;-73
2023/12/16 01:04:05;;;;;;;12.98;3.85;;;8.60;99.90;;;;;;5045814;28;20021;-73
2023/12/16 01:06:31;;;;;;;15.38;3.72;;;8.60;99.90;;;;;;5047109;28;20028;-73
2023/12/16 01:08:57;;;;;;;11.25;2.65;;;8.60;99.90;;;;;;5046940;28;20057;-73
2023/12/16 01:11:23;;;;;;;13.48;3.58;;;8.60;99.90;;;;;;5047285;28;20028;-73
2023/12/16 01:13:49;;;;;;;22.40;4.55;;;8.60;99.90;;;;;;5045420;28;20496;-73
2023/12/16 01:16:14;;;;;;;14.57;3.55;;;8.60;99.90;;;;;;5047021;28;20025;-73
2023/12/16 01:18:40;;;;;;;17.40;3.75;;;8.50;99.90;;;;;;5046604;28;20028;-73
2023/12/16 01:21:08;;;;;;;17.63;4.03;;;8.50;99.90;;;;;;5046989;28;20513;-73
2023/12/16 01:23:34;;;;;;;13.98;2.90;;;8.60;99.90;;;;;;5046842;28;20031;-73
2023/12/16 01:26:00;;;;;;;15.27;3.92;;;8.50;99.90;;;;;;5046756;28;20589;-73
2023/12/16 01:28:26;;;;;;;17.35;3.90;;;8.50;99.90;;;;;;5047167;28;20021;-73
2023/12/16 01:30:51;;;;;;;13.70;3.58;;;8.50;99.90;;;;;;5043904;28;20025;-73
2023/12/16 01:33:17;;;;;;;21.98;3.83;;;8.50;99.90;;;;;;5046758;28;20033;-73
2023/12/16 01:35:43;;;;;;;12.98;3.83;;;8.50;99.90;;;;;;5045894;28;20052;-73
2023/12/16 01:38:08;;;;;;;18.67;3.88;;;8.50;99.90;;;;;;5046359;28;20364;-73
2023/12/16 01:40:34;;;;;;;17.08;2.92;;;8.50;99.90;;;;;;5046616;28;20029;-72
2023/12/16 01:43:04;;;;;;;13.18;4.00;;;8.50;99.90;;;;;;5046890;28;20091;-73
2023/12/16 01:45:29;;;;;;;12.73;3.38;;;8.50;99.90;;;;;;5039551;28;20037;-73
2023/12/16 01:47:55;;;;;;;14.35;3.60;;;8.50;99.90;;;;;;5046359;28;20017;-73
2023/12/16 01:50:22;;;;;;;16.80;3.88;;;8.50;99.90;;;;;;5046245;28;20063;-73
2023/12/16 01:52:48;;;;;;;19.83;3.53;;;8.40;99.90;;;;;;5046551;28;20044;-73
2023/12/16 01:55:14;;;;;;;18.05;3.85;;;8.40;99.90;;;;;;5046102;28;20056;-73
2023/12/16 01:57:41;;;;;;;19.77;3.95;;;8.40;99.90;;;;;;5046988;28;20028;-72
2023/12/16 02:00:07;;;;;;;15.35;3.85;;;8.40;99.90;;;;;;5046225;28;20090;-73
2023/12/16 02:02:34;;;;;;;18.95;3.72;;;8.40;99.90;;;;;;5046478;28;20025;-73
2023/12/16 02:05:00;;;;;;;15.15;3.55;;;8.40;99.90;;;;;;5044676;28;20028;-73
2023/12/16 02:07:26;;;;;;;12.52;3.50;;;8.40;99.90;;;;;;5045141;28;20017;-73
2023/12/16 02:09:51;;;;;;;10.98;2.78;;;8.30;99.90;;;;;;5046001;28;20108;-73
2023/12/16 02:12:19;;;;;;;15.55;3.88;;;8.30;99.90;;;;;;5046854;28;20029;-73
2023/12/16 02:14:45;;;;;;;19.88;4.05;;;8.30;99.90;;;;;;5046069;28;20044;-73
2023/12/16 02:17:10;;;;;;;13.73;4.57;;;8.30;99.90;;;;;;5046576;28;20036;-73
2023/12/16 02:19:36;;;;;;;14.40;4.15;;;8.30;99.90;;;;;;5044531;28;20115;-73
2023/12/16 02:22:02;;;;;;;15.50;4.10;;;8.30;99.90;;;;;;5045087;28;20017;-73
2023/12/16 02:24:29;;;;;;;13.52;3.90;;;8.20;99.90;;;;;;5046252;28;20032;-73
2023/12/16 02:26:55;;;;;;;22.02;4.30;;;8.30;99.90;;;;;;5044679;28;20108;-73
2023/12/16 02:29:21;;;;;;;16.30;3.92;;;8.20;99.90;;;;;;5045962;28;20469;-73
2023/12/16 02:31:47;;;;;;;16.77;4.07;;;8.30;99.90;;;;;;5045950;28;20036;-73
2023/12/16 02:34:12;;;;;;;16.00;4.25;;;8.20;99.90;;;;;;5046126;28;20075;-73
2023/12/16 02:36:38;;;;;;;18.88;4.18;;;8.20;99.90;;;;;;5045924;28;20045;-73
2023/12/16 02:39:04;;;;;;;16.80;4.32;;;8.20;99.90;;;;;;5039523;28;20120;-72
2023/12/16 02:41:29;;;;;;;14.15;4.45;;;8.20;99.90;;;;;;5044734;28;20025;-73
2023/12/16 02:43:55;;;;;;;15.68;4.05;;;8.20;99.90;;;;;;5045924;28;20014;-73
2023/12/16 02:46:21;;;;;;;14.68;4.32;;;8.10;99.90;;;;;;5046474;28;20504;-73
2023/12/16 02:48:46;;;;;;;14.93;4.72;;;8.10;99.90;;;;;;5049525;28;20025;-73
2023/12/16 02:51:19;;;;;;;17.67;5.00;;;8.10;99.90;;;;;;5049493;28;20017;-73
2023/12/16 02:53:45;;;;;;;16.90;5.20;;;8.10;99.90;;;;;;5049659;28;20029;-73
2023/12/16 02:56:11;;;;;;;18.45;5.10;;;8.10;99.90;;;;;;5049758;28;20034;-73
2023/12/16 02:58:37;;;;;;;21.73;5.63;;;8.00;99.90;;;;;;5049875;28;20024;-73
2023/12/16 03:01:02;;;;;;;14.70;4.75;;;8.00;99.90;;;;;;5049277;28;20064;-72
2023/12/16 03:03:28;;;;;;;15.30;4.75;;;8.00;99.90;;;;;;5049513;28;20090;-73
2023/12/16 03:05:54;;;;;;;18.33;4.32;;;8.00;99.90;;;;;;5047681;28;20490;-73
2023/12/16 03:08:19;;;;;;;18.35;5.15;;;8.00;99.90;;;;;;5050425;28;20059;-73
2023/12/16 03:10:45;;;;;;;17.42;4.63;;;8.00;99.90;;;;;;5049903;28;20106;-73
2023/12/16 03:13:11;;;;;;;16.40;5.32;;;8.00;99.90;;;;;;5049606;28;20364;-73
2023/12/16 03:15:36;;;;;;;14.95;5.05;;;7.90;99.90;;;;;;5048973;28;20029;-73
2023/12/16 03:18:02;;;;;;;14.00;5.38;;;7.90;99.90;;;;;;5049628;28;20021;-72
2023/12/16 03:20:27;;;;;;;20.48;5.65;;;7.90;99.90;;;;;;5048966;28;20500;-72
2023/12/16 03:22:53;;;;;;;22.15;5.75;;;7.80;99.90;;;;;;5048924;28;20053;-73
2023/12/16 03:25:19;;;;;;;17.73;5.32;;;7.90;99.90;;;;;;5049093;28;20074;-72
2023/12/16 03:27:45;;;;;;;23.60;5.90;;;7.80;99.90;;;;;;5047468;28;20386;-72
2023/12/16 03:30:11;;;;;;;18.58;5.45;;;7.80;99.90;;;;;;5048883;28;20020;-72
2023/12/16 03:32:37;;;;;;;18.75;5.35;;;7.80;99.90;;;;;;5049259;28;20445;-72
2023/12/16 03:35:03;;;;;;;14.93;4.45;;;7.80;99.90;;;;;;5048445;28;20040;-72
2023/12/16 03:37:28;;;;;;;17.33;5.22;;;7.70;99.90;;;;;;5048643;28;20048;-72
2023/12/16 03:39:54;;;;;;;18.50;5.30;;;7.70;99.90;;;;;;5046977;28;20032;-72
2023/12/16 03:42:20;;;;;;;18.02;4.75;;;7.70;99.90;;;;;;5048732;28;20024;-73
2023/12/16 03:44:48;;;;;;;17.73;5.35;;;7.70;99.90;;;;;;5048387;28;20017;-73
2023/12/16 03:47:14;;;;;;;17.27;5.35;;;7.60;99.90;;;;;;5048687;28;20035;-73
2023/12/16 03:49:43;;;;;;;19.15;5.22;;;7.70;99.90;;;;;;5048143;28;20009;-73
2023/12/16 03:52:09;;;;;;;16.92;5.90;;;7.70;99.90;;;;;;5048696;28;20556;-73
2023/12/16 03:54:35;;;;;;;22.75;5.65;;;7.60;99.90;;;;;;5048155;28;20030;-73
2023/12/16 03:57:00;;;;;;;18.98;5.60;;;7.70;99.90;;;;;;5048206;28;20033;-73
2023/12/16 03:59:27;;;;;;;17.92;5.28;;;7.70;99.90;;;;;;5048215;28;20029;-73
2023/12/16 04:01:52;;;;;;;15.65;4.55;;;7.60;99.90;;;;;;5048153;28;20052;-73
2023/12/16 04:04:18;;;;;;;19.58;4.78;;;7.60;99.90;;;;;;5046833;28;20043;-72
2023/12/16 04:06:45;;;;;;;25.23;4.55;;;7.60;99.90;;;;;;5048178;28;20029;-73
2023/12/16 04:09:11;;;;;;;16.63;4.65;;;7.60;99.90;;;;;;5046831;28;20031;-73
2023/12/16 04:11:45;;;;;;;15.30;5.28;;;7.60;99.90;;;;;;5047877;28;20017;-73
2023/12/16 04:14:11;;;;;;;19.52;5.38;;;7.60;99.90;;;;;;5048254;28;20032;-73
2023/12/16 04:16:37;;;;;;;18.33;5.45;;;7.60;99.90;;;;;;5047942;28;20021;-73
2023/12/16 04:19:03;;;;;;;22.80;5.57;;;7.60;99.90;;;;;;5046711;28;20029;-73
2023/12/16 04:21:28;;;;;;;14.45;4.60;;;7.60;99.90;;;;;;5047586;28;20025;-73
2023/12/16 04:23:54;;;;;;;18.58;5.20;;;7.60;99.90;;;;;;5047701;28;20170;-73
2023/12/16 04:26:19;;;;;;;23.15;5.45;;;7.60;99.90;;;;;;5047535;28;20550;-73
2023/12/16 04:28:45;;;;;;;25.50;5.80;;;7.60;99.90;;;;;;5047824;28;20048;-73
2023/12/16 04:31:16;;;;;;;23.95;6.00;;;7.60;99.90;;;;;;5046137;28;20021;-73
2023/12/16 04:33:42;;;;;;;21.23;6.20;;;7.60;99.90;;;;;;5047751;28;20028;-73
2023/12/16 04:36:13;;;;;;;14.00;5.32;;;7.70;99.90;;;;;;5047463;28;20048;-73
2023/12/16 04:38:38;;;;;;;18.90;5.65;;;7.70;99.90;;;;;;5040951;28;20053;-73
2023/12/16 04:41:04;;;;;;;20.15;5.30;;;7.70;99.90;;;;;;5047657;28;20059;-73
2023/12/16 04:43:30;;;;;;;20.38;4.93;;;7.70;99.90;;;;;;5047579;28;20100;-73
2023/12/16 04:45:56;;;;;;;19.08;4.30;;;7.70;99.90;;;;;;5047092;28;20017;-72
2023/12/16 04:48:21;;;;;;;21.00;5.32;;;7.70;99.90;;;;;;5046320;28;20367;-73
2023/12/16 04:50:47;;;;;;;23.58;8.13;;;7.70;99.90;;;;;;5045702;28;20116;-73
2023/12/16 04:53:12;;;;;;;1999.90;999.90;;;7.70;99.90;;;;;;5047587;28;20021;-72
2023/12/16 04:55:38;;;;;;;32.83;11.23;;;7.70;99.90;;;;;;5047302;28;20113;-73
2023/12/16 04:58:04;;;;;;;25.05;8.35;;;7.70;99.90;;;;;;5047845;28;20424;-73
2023/12/16 05:00:29;;;;;;;25.25;6.78;;;7.70;99.90;;;;;;5047306;28;20029;-73
2023/12/16 05:02:55;;;;;;;19.45;6.45;;;7.70;99.90;;;;;;5047065;28;20029;-73
2023/12/16 05:05:21;;;;;;;15.80;4.85;;;7.70;99.90;;;;;;5046521;28;20025;-73
2023/12/16 05:07:46;;;;;;;24.73;6.25;;;7.70;99.90;;;;;;5047392;28;20025;-73
2023/12/16 05:10:12;;;;;;;19.17;4.82;;;7.70;99.90;;;;;;5046331;28;20021;-73
2023/12/16 05:12:40;;;;;;;23.13;5.40;;;7.70;99.90;;;;;;5047017;28;20382;-73
2023/12/16 05:15:06;;;;;;;23.13;5.72;;;7.70;99.90;;;;;;5046756;28;20056;-73
2023/12/16 05:17:32;;;;;;;24.83;5.82;;;7.70;99.90;;;;;;5046988;28;20029;-73
2023/12/16 05:19:58;;;;;;;27.15;5.90;;;7.70;99.90;;;;;;5046810;28;20032;-73
2023/12/16 05:22:24;;;;;;;20.65;5.43;;;7.70;99.90;;;;;;5046994;28;20488;-73
2023/12/16 05:24:50;;;;;;;20.52;6.05;;;7.60;99.90;;;;;;5046516;28;20036;-73
2023/12/16 05:27:15;;;;;;;19.13;5.65;;;7.60;99.90;;;;;;5046983;28;20009;-73
2023/12/16 05:29:41;;;;;;;19.35;5.70;;;7.60;99.90;;;;;;5046798;28;20471;-73
2023/12/16 05:32:07;;;;;;;18.98;5.53;;;7.60;99.90;;;;;;5046630;28;20530;-73
2023/12/16 05:34:32;;;;;;;17.10;5.40;;;7.60;99.90;;;;;;5046789;28;20119;-73
2023/12/16 05:36:58;;;;;;;21.63;6.30;;;7.60;99.90;;;;;;5046629;28;20099;-73
2023/12/16 05:39:25;;;;;;;20.88;5.47;;;7.60;99.90;;;;;;5040375;28;20029;-73
2023/12/16 05:41:50;;;;;;;25.05;6.45;;;7.60;99.90;;;;;;5046465;28;20061;-71
2023/12/16 05:44:16;;;;;;;15.45;5.25;;;7.60;99.90;;;;;;5046668;28;20060;-73
2023/12/16 05:46:42;;;;;;;19.17;5.88;;;7.50;99.90;;;;;;5045019;28;20032;-73
2023/12/16 05:49:07;;;;;;;15.63;4.25;;;7.50;99.90;;;;;;5046574;28;20017;-73
2023/12/16 05:51:40;;;;;;;20.88;5.50;;;7.50;99.90;;;;;;5046445;28;20048;-73
2023/12/16 05:54:08;;;;;;;17.95;5.22;;;7.50;99.90;;;;;;5046903;28;20025;-72
2023/12/16 05:56:34;;;;;;;23.20;6.07;;;7.50;99.90;;;;;;5046695;28;20427;-73
2023/12/16 05:58:59;;;;;;;20.15;5.75;;;7.50;99.90;;;;;;5047040;28;20044;-72
2023/12/16 06:01:25;;;;;;;19.00;5.60;;;7.50;99.90;;;;;;5046337;28;20071;-73
2023/12/16 06:03:51;;;;;;;20.60;5.85;;;7.60;99.90;;;;;;5046717;28;20079;-73
2023/12/16 06:06:17;;;;;;;22.08;5.65;;;7.50;99.90;;;;;;5046283;28;20017;-73
2023/12/16 06:08:43;;;;;;;20.00;5.00;;;7.60;99.90;;;;;;5046504;28;20490;-73
2023/12/16 06:11:12;;;;;;;27.42;6.20;;;7.60;99.90;;;;;;5046277;28;20013;-73
2023/12/16 06:13:41;;;;;;;28.70;6.15;;;7.60;99.90;;;;;;5032774;28;20525;-72
2023/12/16 06:16:07;;;;;;;23.77;4.78;;;7.60;99.90;;;;;;5046061;28;20028;-72
2023/12/16 06:18:34;;;;;;;22.55;5.40;;;7.60;99.90;;;;;;5045096;28;20367;-72
2023/12/16 06:20:59;;;;;;;20.73;4.70;;;7.60;99.90;;;;;;5048027;28;20032;-72
2023/12/16 06:23:26;;;;;;;26.42;5.68;;;7.60;99.90;;;;;;5048896;28;20028;-72
2023/12/16 06:25:52;;;;;;;23.90;6.25;;;7.60;99.90;;;;;;5049817;28;20040;-73
2023/12/16 06:28:18;;;;;;;23.35;6.30;;;7.60;99.90;;;;;;5050021;28;20040;-73
2023/12/16 06:30:44;;;;;;;26.25;6.80;;;7.60;99.90;;;;;;5049880;28;20021;-72
2023/12/16 06:33:10;;;;;;;25.58;5.28;;;7.60;99.90;;;;;;5048801;28;20502;-72
2023/12/16 06:35:36;;;;;;;31.00;6.47;;;7.60;99.90;;;;;;5049585;28;20394;-72
2023/12/16 06:38:01;;;;;;;26.73;7.22;;;7.60;99.90;;;;;;5048622;28;20033;-72
2023/12/16 06:40:27;;;;;;;23.58;5.40;;;7.60;99.90;;;;;;5048410;28;20429;-72
2023/12/16 06:42:54;;;;;;;26.95;5.90;;;7.60;99.90;;;;;;5049724;28;20028;-72
2023/12/16 06:45:19;;;;;;;19.15;5.60;;;7.60;99.90;;;;;;5048193;28;20136;-72
2023/12/16 06:47:45;;;;;;;27.98;5.68;;;7.60;99.90;;;;;;5049866;28;20155;-72
2023/12/16 06:50:11;;;;;;;25.25;6.15;;;7.60;99.90;;;;;;5049529;28;20513;-72
2023/12/16 06:52:36;;;;;;;20.92;6.70;;;7.60;99.90;;;;;;5048397;28;20021;-73
2023/12/16 06:55:02;;;;;;;22.35;5.72;;;7.60;99.90;;;;;;5049516;28;20516;-73
2023/12/16 06:57:28;;;;;;;22.30;5.50;;;7.60;99.90;;;;;;5049601;28;20150;-73
2023/12/16 06:59:54;;;;;;;16.83;5.30;;;7.60;99.90;;;;;;5049228;28;20120;-72
2023/12/16 07:02:20;;;;;;;15.35;5.70;;;7.50;99.90;;;;;;5048000;28;20021;-72
2023/12/16 07:04:45;;;;;;;25.58;5.63;;;7.60;99.90;;;;;;5049471;28;20049;-72
2023/12/16 07:07:11;;;;;;;20.63;5.50;;;7.50;99.90;;;;;;5049561;28;20021;-72
2023/12/16 07:09:38;;;;;;;30.08;5.93;;;7.50;99.90;;;;;;5049527;28;20024;-72
2023/12/16 07:12:04;;;;;;;15.95;5.07;;;7.50;99.90;;;;;;5049223;28;20032;-72
2023/12/16 07:14:30;;;;;;;22.40;5.60;;;7.50;99.90;;;;;;5049396;28;20053;-73
2023/12/16 07:16:56;;;;;;;20.77;5.60;;;7.50;99.90;;;;;;5048823;28;20583;-72
2023/12/16 07:19:22;;;;;;;25.08;5.82;;;7.50;99.90;;;;;;5049564;28;20044;-72
2023/12/16 07:21:47;;;;;;;21.33;5.18;;;7.50;99.90;;;;;;5048821;28;20032;-73
2023/12/16 07:24:13;;;;;;;19.92;5.88;;;7.50;99.90;;;;;;5049469;28;20024;-72
2023/12/16 07:26:38;;;;;;;21.55;5.70;;;7.50;99.90;;;;;;5048464;28;20502;-72
2023/12/16 07:29:04;;;;;;;18.27;4.82;;;7.50;99.90;;;;;;5047682;28;20025;-73
2023/12/16 07:31:29;;;;;;;21.00;5.88;;;7.40;99.90;;;;;;5044690;28;20025;-72
2023/12/16 07:33:56;;;;;;;17.60;5.30;;;7.40;99.90;;;;;;5048176;28;20021;-72
2023/12/16 07:36:21;;;;;;;18.88;4.90;;;7.40;99.90;;;;;;5041027;28;20050;-72
2023/12/16 07:38:47;;;;;;;22.88;5.05;;;7.40;99.90;;;;;;5046022;28;20386;-73
2023/12/16 07:41:13;;;;;;;20.13;5.32;;;7.30;99.90;;;;;;5048353;28;20021;-72
2023/12/16 07:43:39;;;;;;;27.40;6.03;;;7.30;99.90;;;;;;5043775;28;20486;-73
2023/12/16 07:46:05;;;;;;;25.40;5.22;;;7.30;99.90;;;;;;5048203;28;20018;-74
2023/12/16 07:48:31;;;;;;;24.83;5.40;;;7.30;99.90;;;;;;5048248;28;20029;-73
2023/12/16 07:50:56;;;;;;;19.45;5.50;;;7.30;99.90;;;;;;5038779;28;20029;-74
2023/12/16 07:53:22;;;;;;;26.10;6.10;;;7.30;99.90;;;;;;5047348;28;20059;-74
2023/12/16 07:55:49;;;;;;;27.48;5.57;;;7.30;99.90;;;;;;5046829;28;20029;-75
2023/12/16 07:58:15;;;;;;;17.73;4.40;;;7.30;99.90;;;;;;5047125;28;20074;-73
2023/12/16 08:00:41;;;;;;;26.30;5.07;;;7.30;99.90;;;;;;5046781;28;20441;-74
2023/12/16 08:03:07;;;;;;;24.08;5.38;;;7.30;99.90;;;;;;5048738;28;20113;-73
2023/12/16 08:05:32;;;;;;;27.70;5.18;;;7.30;99.90;;;;;;5047975;28;20562;-73
2023/12/16 08:07:58;;;;;;;19.95;4.68;;;7.30;99.90;;;;;;5047015;28;20021;-73
2023/12/16 08:10:24;;;;;;;20.13;4.88;;;7.30;99.90;;;;;;5048127;28;20025;-73
2023/12/16 08:12:50;;;;;;;20.55;5.15;;;7.40;99.90;;;;;;5048501;28;20471;-73
2023/12/16 08:15:16;;;;;;;22.23;4.75;;;7.40;99.90;;;;;;5047945;28;20049;-72
2023/12/16 08:17:42;;;;;;;21.25;5.35;;;7.40;99.90;;;;;;5048383;28;20025;-73
2023/12/16 08:20:08;;;;;;;17.58;4.30;;;7.40;99.90;;;;;;5046654;28;20376;-73
2023/12/16 08:22:34;;;;;;;24.38;5.15;;;7.40;99.90;;;;;;5039370;28;20468;-73
2023/12/16 08:25:00;;;;;;;18.23;4.32;;;7.40;99.90;;;;;;5045107;28;20033;-72
2023/12/16 08:27:26;;;;;;;23.42;4.25;;;7.40;99.90;;;;;;5047763;28;20029;-72
2023/12/16 08:29:51;;;;;;;19.92;5.25;;;7.40;99.90;;;;;;5047189;28;20032;-73
2023/12/16 08:32:17;;;;;;;16.80;4.45;;;7.50;99.90;;;;;;5046413;28;20024;-73
2023/12/16 08:34:43;;;;;;;23.13;5.00;;;7.50;99.90;;;;;;5047907;28;20090;-73
2023/12/16 08:37:08;;;;;;;19.92;5.13;;;7.50;99.90;;;;;;5047285;28;20518;-73
2023/12/16 08:39:34;;;;;;;23.33;5.50;;;7.50;99.90;;;;;;5048025;28;20033;-73
2023/12/16 08:41:59;;;;;;;18.30;5.38;;;7.60;99.90;;;;;;5047560;28;20051;-73
2023/12/16 08:44:25;;;;;;;23.25;4.63;;;7.60;99.90;;;;;;5037111;28;20029;-73
2023/12/16 08:46:51;;;;;;;19.10;4.60;;;7.60;99.90;;;;;;5044289;28;20807;-73
2023/12/16 08:49:17;;;;;;;15.95;4.78;;;7.70;99.90;;;;;;5038882;28;20017;-73
2023/12/16 08:51:42;;;;;;;20.80;4.82;;;7.70;99.90;;;;;;5046954;28;20025;-73
2023/12/16 08:54:09;;;;;;;23.73;4.72;;;7.70;99.90;;;;;;5047581;28;20028;-73
2023/12/16 08:56:35;;;;;;;25.80;4.75;;;7.80;99.90;;;;;;5038906;28;20494;-73
2023/12/16 08:59:00;;;;;;;18.95;4.60;;;7.80;99.90;;;;;;5039481;28;20025;-74
2023/12/16 09:01:26;;;;;;;21.52;4.82;;;7.90;99.90;;;;;;5038221;28;20024;-73
2023/12/16 09:03:52;;;;;;;19.15;5.25;;;7.90;99.90;;;;;;5045745;28;20017;-73
2023/12/16 09:06:18;;;;;;;22.08;5.18;;;8.00;99.90;;;;;;5042661;28;20845;-74
2023/12/16 09:08:43;;;;;;;20.92;5.80;;;8.00;99.90;;;;;;5036607;28;20029;-73
2023/12/16 09:11:10;;;;;;;26.08;5.38;;;8.10;99.90;;;;;;5038443;28;20017;-73
2023/12/16 09:13:35;;;;;;;21.20;4.78;;;8.10;99.90;;;;;;5033157;28;20037;-73
2023/12/16 09:16:01;;;;;;;21.75;5.22;;;8.20;99.90;;;;;;5046366;28;20028;-74
2023/12/16 09:18:27;;;;;;;17.95;5.47;;;8.20;99.90;;;;;;5045728;28;20028;-74
2023/12/16 09:20:52;;;;;;;21.02;5.13;;;8.30;99.90;;;;;;5043917;28;20495;-74
2023/12/16 09:23:18;;;;;;;17.75;4.20;;;8.30;99.90;;;;;;5037116;28;20034;-73
2023/12/16 09:25:44;;;;;;;16.52;5.00;;;8.40;99.90;;;;;;5030574;28;20442;-74
2023/12/16 09:28:10;;;;;;;22.08;4.85;;;8.40;99.90;;;;;;5041350;28;20025;-74
2023/12/16 09:30:36;;;;;;;20.70;5.30;;;8.40;99.90;;;;;;5033977;28;20033;-74
2023/12/16 09:33:01;;;;;;;21.95;4.78;;;8.40;99.90;;;;;;5043014;28;20380;-74
2023/12/16 09:35:27;;;;;;;25.48;6.28;;;8.40;99.90;;;;;;5045181;28;20025;-73
2023/12/16 09:37:53;;;;;;;24.50;5.32;;;8.40;99.90;;;;;;5040511;28;20060;-74
2023/12/16 09:40:19;;;;;;;27.05;5.40;;;8.50;99.90;;;;;;5033944;28;20032;-74
2023/12/16 09:42:49;;;;;;;18.58;6.18;;;8.50;99.90;;;;;;5046634;28;20033;-74
2023/12/16 09:45:15;;;;;;;24.33;7.47;;;8.50;99.90;;;;;;5039743;28;20043;-74
2023/12/16 09:47:42;;;;;;;23.92;6.70;;;8.50;99.90;;;;;;5037669;28;20115;-74
2023/12/16 09:50:11;;;;;;;23.35;5.97;;;8.50;99.90;;;;;;5046507;28;20222;-73
2023/12/16 09:52:38;;;;;;;21.80;7.38;;;8.50;99.90;;;;;;5046385;28;20053;-73
2023/12/16 09:55:04;;;;;;;24.88;6.43;;;8.50;99.90;;;;;;5032114;28;20025;-74
2023/12/16 09:57:35;;;;;;;24.35;6.93;;;8.60;99.90;;;;;;5044467;28;20024;-73
2023/12/16 10:00:01;;;;;;;31.90;7.40;;;8.60;99.90;;;;;;5035252;28;20120;-74
2023/12/16 10:02:28;;;;;;;26.10;8.05;;;8.60;99.90;;;;;;5043828;28;20033;-74
2023/12/16 10:04:58;;;;;;;20.50;7.45;;;8.60;99.90;;;;;;5043594;28;20458;-74
2023/12/16 10:07:24;;;;;;;20.20;7.15;;;8.60;99.90;;;;;;5044522;28;20017;-74
2023/12/16 10:09:50;;;;;;;24.88;7.10;;;8.60;99.90;;;;;;5045045;28;20041;-74
2023/12/16 10:12:18;;;;;;;26.98;7.65;;;8.60;99.90;;;;;;5044504;28;20723;-73
2023/12/16 10:14:48;;;;;;;29.75;8.80;;;8.60;99.90;;;;;;5043867;28;20029;-73
2023/12/16 10:17:17;;;;;;;34.80;9.87;;;8.70;99.90;;;;;;5044344;28;20025;-73
2023/12/16 10:19:44;;;;;;;27.83;7.97;;;8.70;99.90;;;;;;5044912;28;20045;-74
2023/12/16 10:22:14;;;;;;;27.00;8.95;;;8.70;99.90;;;;;;5044619;28;20110;-74
2023/12/16 10:24:42;;;;;;;27.50;8.52;;;8.70;99.90;;;;;;5046577;28;20228;-73
2023/12/16 10:27:09;;;;;;;27.63;8.27;;;8.70;99.90;;;;;;5032203;28;20029;-73
2023/12/16 10:29:35;;;;;;;36.65;9.40;;;8.70;99.90;;;;;;5044360;28;20028;-74
2023/12/16 10:32:01;;;;;;;26.88;8.57;;;8.70;99.90;;;;;;5044325;28;20025;-73
2023/12/16 10:34:30;;;;;;;28.58;8.63;;;8.70;99.90;;;;;;5042931;28;20036;-73
2023/12/16 10:37:08;;;;;;;33.00;11.20;;;8.80;99.90;;;;;;5037140;28;20040;-73
2023/12/16 10:39:35;;;;;;;31.35;10.68;;;8.80;99.90;;;;;;5040436;28;20024;-73
2023/12/16 10:42:01;;;;;;;33.17;9.93;;;8.80;99.90;;;;;;5041522;28;20025;-74
2023/12/16 10:44:27;;;;;;;34.63;10.93;;;8.80;99.90;;;;;;5045329;28;20136;-73
2023/12/16 10:46:54;;;;;;;26.42;11.07;;;8.90;99.90;;;;;;5039722;28;20128;-74
2023/12/16 10:49:31;;;;;;;26.75;11.27;;;8.80;99.90;;;;;;5037199;28;20549;-74
2023/12/16 10:52:06;;;;;;;33.78;12.05;;;9.00;99.90;;;;;;5036146;28;20606;-74
2023/12/16 10:54:43;;;;;;;32.55;12.57;;;9.00;99.90;;;;;;5032537;28;20032;-73
2023/12/16 10:57:26;;;;;;;35.42;12.07;;;9.00;99.90;;;;;;5029182;28;20098;-74
2023/12/16 11:00:06;;;;;;;33.55;11.95;;;9.00;99.90;;;;;;5044689;28;20025;-74
2023/12/16 11:02:38;;;;;;;36.50;12.07;;;9.00;99.90;;;;;;5036183;28;20422;-73
2023/12/16 11:05:14;;;;;;;31.65;11.65;;;9.10;99.90;;;;;;5039435;28;20021;-74
2023/12/16 11:07:41;;;;;;;32.80;11.43;;;9.10;99.90;;;;;;5046478;28;20033;-73
2023/12/16 11:10:08;;;;;;;42.85;12.23;;;9.10;99.90;;;;;;5043787;28;20018;-73
2023/12/16 11:12:38;;;;;;;31.48;11.50;;;9.10;99.90;;;;;;5039397;28;20056;-74
2023/12/16 11:15:07;;;;;;;26.83;11.23;;;9.20;99.90;;;;;;5040285;28;20033;-73
2023/12/16 11:17:42;;;;;;;29.83;11.40;;;9.20;99.90;;;;;;5039407;28;20391;-74
2023/12/16 11:20:15;;;;;;;34.38;12.77;;;9.20;99.90;;;;;;5048388;28;20017;-73
2023/12/16 11:22:51;;;;;;;32.85;11.90;;;9.20;99.90;;;;;;5039701;28;20068;-73
2023/12/16 11:25:19;;;;;;;41.35;13.98;;;9.20;99.90;;;;;;5046723;28;20104;-73
2023/12/16 11:27:52;;;;;;;31.13;11.93;;;9.20;99.90;;;;;;5046790;28;20035;-74
2023/12/16 11:30:20;;;;;;;36.30;13.95;;;9.20;99.90;;;;;;5048889;28;20028;-73
2023/12/16 11:32:57;;;;;;;42.35;13.15;;;9.20;99.90;;;;;;5041617;28;20486;-73
2023/12/16 11:35:53;;;;;;;38.45;13.90;;;9.20;99.90;;;;;;5046592;28;20486;-74
2023/12/16 11:38:56;;;;;;;41.22;14.02;;;9.20;99.90;;;;;;5044929;28;20038;-73
2023/12/16 11:41:41;;;;;;;38.78;14.07;;;9.20;99.90;;;;;;5020504;28;20130;-74
2023/12/16 11:44:08;;;;;;;41.83;14.85;;;9.10;99.90;;;;;;5044934;28;20070;-73
2023/12/16 11:46:38;;;;;;;39.85;14.77;;;9.10;99.90;;;;;;5046578;28;20148;-73
2023/12/16 11:49:07;;;;;;;32.83;14.23;;;9.10;99.90;;;;;;5048315;28;20032;-73
2023/12/16 11:51:34;;;;;;;38.28;15.55;;;9.20;99.90;;;;;;5039612;28;20187;-74
2023/12/16 11:54:01;;;;;;;36.85;15.35;;;9.20;99.90;;;;;;5040382;28;20025;-74
2023/12/16 11:56:27;;;;;;;42.17;16.10;;;9.20;99.90;;;;;;5046302;28;20148;-74
2023/12/16 11:59:02;;;;;;;36.03;15.60;;;9.10;99.90;;;;;;5048628;28;20116;-74
2023/12/16 12:01:31;;;;;;;39.67;15.52;;;9.10;99.90;;;;;;5044687;28;20028;-73
2023/12/16 12:03:57;;;;;;;41.63;14.82;;;9.20;99.90;;;;;;5045538;28;20056;-74
2023/12/16 12:06:25;;;;;;;37.50;14.93;;;9.20;99.90;;;;;;5045478;28;20064;-74
2023/12/16 12:08:51;;;;;;;37.83;16.35;;;9.10;99.90;;;;;;5048661;28;20025;-74
2023/12/16 12:11:18;;;;;;;43.30;16.08;;;9.10;99.90;;;;;;5048003;28;20060;-73
2023/12/16 12:13:44;;;;;;;42.15;15.75;;;9.10;99.90;;;;;;5048147;28;20036;-73
2023/12/16 12:16:12;;;;;;;50.95;16.58;;;9.10;99.90;;;;;;5046819;28;20175;-73
2023/12/16 12:18:39;;;;;;;53.25;18.92;;;9.10;99.90;;;;;;5048094;28;20384;-74
2023/12/16 12:21:06;;;;;;;53.40;18.70;;;9.10;99.90;;;;;;5048194;28;20040;-73
2023/12/16 12:23:33;;;;;;;45.25;17.13;;;9.10;99.90;;;;;;5046334;28;20036;-73
2023/12/16 12:25:58;;;;;;;43.60;17.13;;;9.00;99.90;;;;;;5046294;28;20340;-73
2023/12/16 12:28:24;;;;;;;53.60;18.63;;;9.00;99.90;;;;;;5046498;28;20620;-73
2023/12/16 12:30:50;;;;;;;45.90;17.27;;;9.00;99.90;;;;;;5047849;28;20025;-73
2023/12/16 12:33:17;;;;;;;50.88;17.85;;;9.00;99.90;;;;;;5047730;28;20414;-74
2023/12/16 12:35:43;;;;;;;47.75;18.60;;;9.00;99.90;;;;;;5033995;28;20073;-74
2023/12/16 12:38:08;;;;;;;46.35;19.33;;;9.00;99.90;;;;;;5047465;28;20053;-73
2023/12/16 12:40:34;;;;;;;55.45;19.80;;;9.00;99.90;;;;;;5047611;28;20025;-74
2023/12/16 12:43:00;;;;;;;50.88;20.55;;;9.00;99.90;;;;;;5046955;28;20083;-73